sensor_id;sensor_type;location;lat;lon;timestamp;P1;durP1;ratioP1;P2;durP2;ratioP2
39778;SDS011;25454;49.878;8.618;2022-10-16T00:04:36;4.10;;;2.10;;
39778;SDS011;25454;49.878;8.618;2022-10-16T00:09:37;3.57;;;2.40;;
39778;SDS011;25454;49.878;8.618;2022-10-16T00:14:37;3.87;;;2.50;;
39778;SDS011;25454;49.878;8.618;2022-10-16T00:19:40;2.70;;;2.50;;
39778;SDS011;25454;49.878;8.618;2022-10-16T00:24:41;3.60;;;2.40;;
39778;SDS011;25454;49.878;8.618;2022-10-16T00:29:42;4.17;;;2.17;;
39778;SDS011;25454;49.878;8.618;2022-10-16T00:34:43;2.93;;;1.80;;
39778;SDS011;25454;49.878;8.618;2022-10-16T00:39:43;3.93;;;1.97;;
39778;SDS011;25454;49.878;8.618;2022-10-16T00:49:49;2.50;;;1.60;;
39778;SDS011;25454;49.878;8.618;2022-10-16T00:54:53;8.90;;;2.10;;
39778;SDS011;25454;49.878;8.618;2022-10-16T00:59:54;1.93;;;1.40;;
39778;SDS011;25454;49.878;8.618;2022-10-16T01:04:57;2.03;;;1.20;;
39778;SDS011;25454;49.878;8.618;2022-10-16T01:21:04;1.00;;;0.70;;
39778;SDS011;25454;49.878;8.618;2022-10-16T01:31:30;1.30;;;0.70;;
39778;SDS011;25454;49.878;8.618;2022-10-16T01:36:39;1.67;;;0.60;;
39778;SDS011;25454;49.878;8.618;2022-10-16T01:41:45;2.23;;;0.90;;
39778;SDS011;25454;49.878;8.618;2022-10-16T01:46:52;1.77;;;0.93;;
39778;SDS011;25454;49.878;8.618;2022-10-16T01:51:55;1.27;;;0.70;;
39778;SDS011;25454;49.878;8.618;2022-10-16T01:56:58;3.30;;;1.00;;
39778;SDS011;25454;49.878;8.618;2022-10-16T02:02:01;3.43;;;1.00;;
39778;SDS011;25454;49.878;8.618;2022-10-16T02:07:06;1.53;;;1.03;;
39778;SDS011;25454;49.878;8.618;2022-10-16T02:12:11;3.83;;;1.10;;
39778;SDS011;25454;49.878;8.618;2022-10-16T02:17:18;1.97;;;1.33;;
39778;SDS011;25454;49.878;8.618;2022-10-16T02:22:21;6.07;;;1.80;;
39778;SDS011;25454;49.878;8.618;2022-10-16T02:27:45;2.47;;;1.83;;
39778;SDS011;25454;49.878;8.618;2022-10-16T02:33:06;5.93;;;1.90;;
39778;SDS011;25454;49.878;8.618;2022-10-16T02:38:09;3.60;;;2.00;;
39778;SDS011;25454;49.878;8.618;2022-10-16T02:43:10;2.13;;;1.90;;
39778;SDS011;25454;49.878;8.618;2022-10-16T02:48:11;6.07;;;2.30;;
39778;SDS011;25454;49.878;8.618;2022-10-16T02:53:12;4.17;;;2.47;;
39778;SDS011;25454;49.878;8.618;2022-10-16T02:58:14;5.03;;;3.20;;
39778;SDS011;25454;49.878;8.618;2022-10-16T03:03:15;4.53;;;3.60;;
39778;SDS011;25454;49.878;8.618;2022-10-16T03:08:16;5.47;;;3.43;;
39778;SDS011;25454;49.878;8.618;2022-10-16T03:13:17;5.27;;;3.37;;
39778;SDS011;25454;49.878;8.618;2022-10-16T03:18:20;5.90;;;3.40;;
39778;SDS011;25454;49.878;8.618;2022-10-16T03:23:21;5.47;;;3.47;;
39778;SDS011;25454;49.878;8.618;2022-10-16T03:28:21;3.43;;;2.70;;
39778;SDS011;25454;49.878;8.618;2022-10-16T03:33:22;5.33;;;2.63;;
39778;SDS011;25454;49.878;8.618;2022-10-16T03:38:22;5.40;;;2.60;;
39778;SDS011;25454;49.878;8.618;2022-10-16T03:43:23;8.90;;;3.30;;
39778;SDS011;25454;49.878;8.618;2022-10-16T03:48:24;6.17;;;3.00;;
39778;SDS011;25454;49.878;8.618;2022-10-16T03:53:24;8.73;;;3.87;;
39778;SDS011;25454;49.878;8.618;2022-10-16T03:58:25;6.50;;;3.10;;
39778;SDS011;25454;49.878;8.618;2022-10-16T04:03:25;6.17;;;3.67;;
39778;SDS011;25454;49.878;8.618;2022-10-16T04:08:26;5.60;;;3.73;;
39778;SDS011;25454;49.878;8.618;2022-10-16T04:13:26;3.80;;;3.40;;
39778;SDS011;25454;49.878;8.618;2022-10-16T04:18:27;8.30;;;3.93;;
39778;SDS011;25454;49.878;8.618;2022-10-16T04:23:27;10.40;;;4.13;;
39778;SDS011;25454;49.878;8.618;2022-10-16T04:28:28;6.47;;;3.57;;
39778;SDS011;25454;49.878;8.618;2022-10-16T04:33:29;7.27;;;3.57;;
39778;SDS011;25454;49.878;8.618;2022-10-16T04:38:30;5.10;;;3.60;;
39778;SDS011;25454;49.878;8.618;2022-10-16T04:43:30;6.97;;;3.60;;
39778;SDS011;25454;49.878;8.618;2022-10-16T04:48:32;5.53;;;3.47;;
39778;SDS011;25454;49.878;8.618;2022-10-16T04:53:35;4.10;;;3.63;;
39778;SDS011;25454;49.878;8.618;2022-10-16T04:58:36;6.70;;;3.73;;
39778;SDS011;25454;49.878;8.618;2022-10-16T05:03:37;5.70;;;4.20;;
39778;SDS011;25454;49.878;8.618;2022-10-16T05:08:37;6.73;;;3.87;;
39778;SDS011;25454;49.878;8.618;2022-10-16T05:13:38;4.50;;;3.33;;
39778;SDS011;25454;49.878;8.618;2022-10-16T05:18:41;3.80;;;3.50;;
39778;SDS011;25454;49.878;8.618;2022-10-16T05:23:42;6.47;;;3.57;;
39778;SDS011;25454;49.878;8.618;2022-10-16T05:28:43;6.60;;;3.60;;
39778;SDS011;25454;49.878;8.618;2022-10-16T05:33:43;4.57;;;3.30;;
39778;SDS011;25454;49.878;8.618;2022-10-16T05:38:44;5.07;;;3.83;;
39778;SDS011;25454;49.878;8.618;2022-10-16T05:43:44;4.27;;;3.60;;
39778;SDS011;25454;49.878;8.618;2022-10-16T05:48:45;3.73;;;3.37;;
39778;SDS011;25454;49.878;8.618;2022-10-16T05:53:46;5.23;;;3.80;;
39778;SDS011;25454;49.878;8.618;2022-10-16T05:58:46;5.47;;;3.47;;
39778;SDS011;25454;49.878;8.618;2022-10-16T06:03:47;6.83;;;4.33;;
39778;SDS011;25454;49.878;8.618;2022-10-16T06:08:48;9.63;;;3.77;;
39778;SDS011;25454;49.878;8.618;2022-10-16T06:13:50;5.77;;;3.60;;
39778;SDS011;25454;49.878;8.618;2022-10-16T06:18:52;6.03;;;3.37;;
39778;SDS011;25454;49.878;8.618;2022-10-16T06:23:55;4.33;;;3.13;;
39778;SDS011;25454;49.878;8.618;2022-10-16T06:28:58;3.40;;;3.00;;
39778;SDS011;25454;49.878;8.618;2022-10-16T06:33:59;5.00;;;3.10;;
39778;SDS011;25454;49.878;8.618;2022-10-16T06:39:00;3.63;;;2.73;;
39778;SDS011;25454;49.878;8.618;2022-10-16T06:44:01;2.60;;;2.40;;
39778;SDS011;25454;49.878;8.618;2022-10-16T06:49:05;6.10;;;2.93;;
39778;SDS011;25454;49.878;8.618;2022-10-16T06:54:06;4.10;;;2.73;;
39778;SDS011;25454;49.878;8.618;2022-10-16T06:59:07;4.80;;;2.60;;
39778;SDS011;25454;49.878;8.618;2022-10-16T07:04:07;3.73;;;2.40;;
39778;SDS011;25454;49.878;8.618;2022-10-16T07:09:09;4.67;;;2.83;;
39778;SDS011;25454;49.878;8.618;2022-10-16T07:14:20;5.23;;;2.43;;
39778;SDS011;25454;49.878;8.618;2022-10-16T07:19:21;5.17;;;2.70;;
39778;SDS011;25454;49.878;8.618;2022-10-16T07:24:22;3.97;;;2.17;;
39778;SDS011;25454;49.878;8.618;2022-10-16T07:29:22;4.83;;;2.40;;
39778;SDS011;25454;49.878;8.618;2022-10-16T07:34:23;4.33;;;2.40;;
39778;SDS011;25454;49.878;8.618;2022-10-16T07:39:24;3.20;;;1.70;;
39778;SDS011;25454;49.878;8.618;2022-10-16T07:44:24;2.77;;;2.10;;
39778;SDS011;25454;49.878;8.618;2022-10-16T07:49:25;8.70;;;2.10;;
39778;SDS011;25454;49.878;8.618;2022-10-16T07:54:25;4.00;;;2.20;;
39778;SDS011;25454;49.878;8.618;2022-10-16T07:59:26;5.27;;;2.37;;
39778;SDS011;25454;49.878;8.618;2022-10-16T08:04:27;3.87;;;2.13;;
39778;SDS011;25454;49.878;8.618;2022-10-16T08:09:27;5.07;;;1.93;;
39778;SDS011;25454;49.878;8.618;2022-10-16T08:14:28;7.30;;;1.80;;
39778;SDS011;25454;49.878;8.618;2022-10-16T08:19:31;7.73;;;2.10;;
39778;SDS011;25454;49.878;8.618;2022-10-16T08:24:34;4.77;;;1.73;;
39778;SDS011;25454;49.878;8.618;2022-10-16T08:29:34;6.77;;;1.80;;
39778;SDS011;25454;49.878;8.618;2022-10-16T08:34:35;9.43;;;2.30;;
39778;SDS011;25454;49.878;8.618;2022-10-16T08:39:36;6.03;;;3.10;;
39778;SDS011;25454;49.878;8.618;2022-10-16T08:44:43;4.13;;;2.40;;
39778;SDS011;25454;49.878;8.618;2022-10-16T08:49:57;9.93;;;2.70;;
39778;SDS011;25454;49.878;8.618;2022-10-16T08:55:00;3.47;;;2.27;;
39778;SDS011;25454;49.878;8.618;2022-10-16T09:00:22;5.27;;;3.20;;
39778;SDS011;25454;49.878;8.618;2022-10-16T09:10:41;4.77;;;2.80;;
39778;SDS011;25454;49.878;8.618;2022-10-16T09:16:15;5.30;;;2.60;;
39778;SDS011;25454;49.878;8.618;2022-10-16T09:21:31;6.93;;;2.87;;
39778;SDS011;25454;49.878;8.618;2022-10-16T09:26:40;6.23;;;2.00;;
39778;SDS011;25454;49.878;8.618;2022-10-16T09:31:41;2.37;;;2.07;;
39778;SDS011;25454;49.878;8.618;2022-10-16T09:36:42;5.03;;;2.00;;
39778;SDS011;25454;49.878;8.618;2022-10-16T09:41:45;4.00;;;1.97;;
39778;SDS011;25454;49.878;8.618;2022-10-16T09:46:46;3.70;;;2.40;;
39778;SDS011;25454;49.878;8.618;2022-10-16T09:51:46;5.20;;;2.73;;
39778;SDS011;25454;49.878;8.618;2022-10-16T09:56:47;3.63;;;1.60;;
39778;SDS011;25454;49.878;8.618;2022-10-16T10:01:58;2.27;;;1.80;;
39778;SDS011;25454;49.878;8.618;2022-10-16T10:07:03;5.13;;;1.80;;
39778;SDS011;25454;49.878;8.618;2022-10-16T10:12:04;3.53;;;1.70;;
39778;SDS011;25454;49.878;8.618;2022-10-16T10:17:09;2.03;;;1.73;;
39778;SDS011;25454;49.878;8.618;2022-10-16T10:27:35;6.27;;;1.90;;
39778;SDS011;25454;49.878;8.618;2022-10-16T10:38:41;2.07;;;0.90;;
39778;SDS011;25454;49.878;8.618;2022-10-16T10:54:32;2.77;;;1.27;;
39778;SDS011;25454;49.878;8.618;2022-10-16T11:00:00;3.90;;;1.90;;
39778;SDS011;25454;49.878;8.618;2022-10-16T11:10:23;3.40;;;1.60;;
39778;SDS011;25454;49.878;8.618;2022-10-16T11:15:28;2.30;;;2.10;;
39778;SDS011;25454;49.878;8.618;2022-10-16T11:20:33;3.53;;;1.60;;
39778;SDS011;25454;49.878;8.618;2022-10-16T11:25:40;4.70;;;1.60;;
39778;SDS011;25454;49.878;8.618;2022-10-16T11:30:44;1.50;;;1.40;;
39778;SDS011;25454;49.878;8.618;2022-10-16T11:35:59;3.67;;;1.80;;
39778;SDS011;25454;49.878;8.618;2022-10-16T11:41:13;3.30;;;2.40;;
39778;SDS011;25454;49.878;8.618;2022-10-16T11:46:17;4.00;;;1.87;;
39778;SDS011;25454;49.878;8.618;2022-10-16T11:51:25;2.30;;;1.60;;
39778;SDS011;25454;49.878;8.618;2022-10-16T11:56:44;2.40;;;1.77;;
39778;SDS011;25454;49.878;8.618;2022-10-16T12:07:32;1.83;;;1.47;;
39778;SDS011;25454;49.878;8.618;2022-10-16T12:12:39;1.77;;;1.67;;
39778;SDS011;25454;49.878;8.618;2022-10-16T12:17:40;4.87;;;1.93;;
39778;SDS011;25454;49.878;8.618;2022-10-16T12:22:41;3.40;;;1.97;;
39778;SDS011;25454;49.878;8.618;2022-10-16T12:27:56;3.33;;;1.70;;
39778;SDS011;25454;49.878;8.618;2022-10-16T12:33:05;2.17;;;2.00;;
39778;SDS011;25454;49.878;8.618;2022-10-16T12:38:20;2.37;;;1.47;;
39778;SDS011;25454;49.878;8.618;2022-10-16T12:43:38;1.77;;;1.50;;
39778;SDS011;25454;49.878;8.618;2022-10-16T12:48:46;1.50;;;1.40;;
39778;SDS011;25454;49.878;8.618;2022-10-16T13:10:04;2.67;;;1.57;;
39778;SDS011;25454;49.878;8.618;2022-10-16T13:21:20;4.13;;;1.93;;
39778;SDS011;25454;49.878;8.618;2022-10-16T13:31:30;5.70;;;2.00;;
39778;SDS011;25454;49.878;8.618;2022-10-16T13:36:35;3.07;;;2.17;;
39778;SDS011;25454;49.878;8.618;2022-10-16T13:41:44;3.00;;;2.07;;
39778;SDS011;25454;49.878;8.618;2022-10-16T13:46:45;3.57;;;2.67;;
39778;SDS011;25454;49.878;8.618;2022-10-16T13:51:56;2.70;;;2.40;;
39778;SDS011;25454;49.878;8.618;2022-10-16T13:57:04;4.70;;;2.30;;
39778;SDS011;25454;49.878;8.618;2022-10-16T14:02:13;3.13;;;2.13;;
39778;SDS011;25454;49.878;8.618;2022-10-16T14:07:37;4.67;;;2.30;;
39778;SDS011;25454;49.878;8.618;2022-10-16T14:12:38;3.37;;;2.13;;
39778;SDS011;25454;49.878;8.618;2022-10-16T14:17:45;3.23;;;2.10;;
39778;SDS011;25454;49.878;8.618;2022-10-16T14:22:57;3.60;;;2.90;;
39778;SDS011;25454;49.878;8.618;2022-10-16T14:28:20;2.60;;;2.40;;
39778;SDS011;25454;49.878;8.618;2022-10-16T14:38:28;4.53;;;2.20;;
39778;SDS011;25454;49.878;8.618;2022-10-16T14:48:39;4.63;;;2.17;;
39778;SDS011;25454;49.878;8.618;2022-10-16T14:53:42;2.27;;;1.97;;
39778;SDS011;25454;49.878;8.618;2022-10-16T14:58:43;4.70;;;2.50;;
39778;SDS011;25454;49.878;8.618;2022-10-16T15:03:44;4.33;;;2.57;;
39778;SDS011;25454;49.878;8.618;2022-10-16T15:08:45;5.03;;;2.37;;
39778;SDS011;25454;49.878;8.618;2022-10-16T15:13:45;2.80;;;2.40;;
39778;SDS011;25454;49.878;8.618;2022-10-16T15:18:46;3.60;;;2.20;;
39778;SDS011;25454;49.878;8.618;2022-10-16T15:23:48;4.33;;;2.57;;
39778;SDS011;25454;49.878;8.618;2022-10-16T15:28:48;4.73;;;2.37;;
39778;SDS011;25454;49.878;8.618;2022-10-16T15:33:50;2.40;;;2.20;;
39778;SDS011;25454;49.878;8.618;2022-10-16T15:38:56;4.57;;;2.20;;
39778;SDS011;25454;49.878;8.618;2022-10-16T15:43:57;4.13;;;2.70;;
39778;SDS011;25454;49.878;8.618;2022-10-16T15:48:57;3.37;;;2.10;;
39778;SDS011;25454;49.878;8.618;2022-10-16T15:53:59;4.00;;;2.60;;
39778;SDS011;25454;49.878;8.618;2022-10-16T15:59:01;5.63;;;2.67;;
39778;SDS011;25454;49.878;8.618;2022-10-16T16:04:02;3.97;;;2.57;;
39778;SDS011;25454;49.878;8.618;2022-10-16T16:09:04;5.00;;;2.47;;
39778;SDS011;25454;49.878;8.618;2022-10-16T16:14:05;3.33;;;2.33;;
39778;SDS011;25454;49.878;8.618;2022-10-16T16:19:06;6.93;;;3.50;;
39778;SDS011;25454;49.878;8.618;2022-10-16T16:24:08;5.73;;;2.90;;
39778;SDS011;25454;49.878;8.618;2022-10-16T16:29:13;2.70;;;2.50;;
39778;SDS011;25454;49.878;8.618;2022-10-16T16:34:15;4.40;;;2.83;;
39778;SDS011;25454;49.878;8.618;2022-10-16T16:39:15;4.30;;;2.90;;
39778;SDS011;25454;49.878;8.618;2022-10-16T16:44:16;5.33;;;2.73;;
39778;SDS011;25454;49.878;8.618;2022-10-16T16:49:17;9.53;;;3.40;;
39778;SDS011;25454;49.878;8.618;2022-10-16T16:54:17;6.50;;;3.00;;
39778;SDS011;25454;49.878;8.618;2022-10-16T16:59:19;5.37;;;3.10;;
39778;SDS011;25454;49.878;8.618;2022-10-16T17:04:21;3.10;;;2.70;;
39778;SDS011;25454;49.878;8.618;2022-10-16T17:09:22;5.33;;;2.70;;
39778;SDS011;25454;49.878;8.618;2022-10-16T17:14:23;5.93;;;2.73;;
39778;SDS011;25454;49.878;8.618;2022-10-16T17:19:24;3.03;;;2.73;;
39778;SDS011;25454;49.878;8.618;2022-10-16T17:24:28;4.10;;;2.90;;
39778;SDS011;25454;49.878;8.618;2022-10-16T17:29:29;5.10;;;4.17;;
39778;SDS011;25454;49.878;8.618;2022-10-16T17:34:29;10.83;;;6.57;;
39778;SDS011;25454;49.878;8.618;2022-10-16T17:39:30;9.83;;;6.43;;
39778;SDS011;25454;49.878;8.618;2022-10-16T17:44:30;12.47;;;7.57;;
39778;SDS011;25454;49.878;8.618;2022-10-16T17:49:31;16.53;;;8.00;;
39778;SDS011;25454;49.878;8.618;2022-10-16T17:54:32;7.20;;;4.97;;
39778;SDS011;25454;49.878;8.618;2022-10-16T17:59:32;11.67;;;4.73;;
39778;SDS011;25454;49.878;8.618;2022-10-16T18:04:33;12.27;;;4.20;;
39778;SDS011;25454;49.878;8.618;2022-10-16T18:09:33;9.80;;;4.77;;
39778;SDS011;25454;49.878;8.618;2022-10-16T18:14:34;8.87;;;4.97;;
39778;SDS011;25454;49.878;8.618;2022-10-16T18:19:35;7.73;;;4.97;;
39778;SDS011;25454;49.878;8.618;2022-10-16T18:24:35;6.53;;;4.83;;
39778;SDS011;25454;49.878;8.618;2022-10-16T18:29:36;5.80;;;4.30;;
39778;SDS011;25454;49.878;8.618;2022-10-16T18:34:37;6.40;;;4.27;;
39778;SDS011;25454;49.878;8.618;2022-10-16T18:39:37;4.63;;;4.07;;
39778;SDS011;25454;49.878;8.618;2022-10-16T18:44:38;10.07;;;5.37;;
39778;SDS011;25454;49.878;8.618;2022-10-16T18:49:38;11.17;;;4.50;;
39778;SDS011;25454;49.878;8.618;2022-10-16T18:54:39;6.93;;;4.10;;
39778;SDS011;25454;49.878;8.618;2022-10-16T18:59:40;7.23;;;4.13;;
39778;SDS011;25454;49.878;8.618;2022-10-16T19:04:40;8.70;;;4.53;;
39778;SDS011;25454;49.878;8.618;2022-10-16T19:09:41;11.40;;;4.57;;
39778;SDS011;25454;49.878;8.618;2022-10-16T19:14:42;9.33;;;4.53;;
39778;SDS011;25454;49.878;8.618;2022-10-16T19:19:42;8.43;;;4.10;;
39778;SDS011;25454;49.878;8.618;2022-10-16T19:24:43;5.63;;;4.30;;
39778;SDS011;25454;49.878;8.618;2022-10-16T19:29:44;6.83;;;4.43;;
39778;SDS011;25454;49.878;8.618;2022-10-16T19:34:48;9.80;;;4.57;;
39778;SDS011;25454;49.878;8.618;2022-10-16T19:39:53;9.00;;;4.43;;
39778;SDS011;25454;49.878;8.618;2022-10-16T19:44:53;7.53;;;4.40;;
39778;SDS011;25454;49.878;8.618;2022-10-16T19:49:54;12.27;;;4.10;;
39778;SDS011;25454;49.878;8.618;2022-10-16T19:54:54;13.17;;;4.00;;
39778;SDS011;25454;49.878;8.618;2022-10-16T19:59:56;10.47;;;3.50;;
39778;SDS011;25454;49.878;8.618;2022-10-16T20:04:57;7.50;;;3.10;;
39778;SDS011;25454;49.878;8.618;2022-10-16T20:10:00;6.00;;;3.23;;
39778;SDS011;25454;49.878;8.618;2022-10-16T20:15:01;7.27;;;4.70;;
39778;SDS011;25454;49.878;8.618;2022-10-16T20:20:02;9.37;;;3.40;;
39778;SDS011;25454;49.878;8.618;2022-10-16T20:25:03;5.20;;;3.83;;
39778;SDS011;25454;49.878;8.618;2022-10-16T20:30:04;7.80;;;3.77;;
39778;SDS011;25454;49.878;8.618;2022-10-16T20:35:05;7.33;;;3.40;;
39778;SDS011;25454;49.878;8.618;2022-10-16T20:40:15;8.73;;;3.60;;
39778;SDS011;25454;49.878;8.618;2022-10-16T20:45:16;5.87;;;3.70;;
39778;SDS011;25454;49.878;8.618;2022-10-16T20:50:20;7.03;;;3.90;;
39778;SDS011;25454;49.878;8.618;2022-10-16T20:55:21;6.73;;;4.53;;
39778;SDS011;25454;49.878;8.618;2022-10-16T21:00:22;11.20;;;5.77;;
39778;SDS011;25454;49.878;8.618;2022-10-16T21:05:22;10.17;;;6.40;;
39778;SDS011;25454;49.878;8.618;2022-10-16T21:10:23;9.60;;;5.17;;
39778;SDS011;25454;49.878;8.618;2022-10-16T21:15:23;8.80;;;5.10;;
39778;SDS011;25454;49.878;8.618;2022-10-16T21:20:24;11.70;;;5.40;;
39778;SDS011;25454;49.878;8.618;2022-10-16T21:25:24;10.20;;;5.63;;
39778;SDS011;25454;49.878;8.618;2022-10-16T21:30:25;12.00;;;5.87;;
39778;SDS011;25454;49.878;8.618;2022-10-16T21:35:26;8.57;;;5.33;;
39778;SDS011;25454;49.878;8.618;2022-10-16T21:40:27;11.27;;;5.47;;
39778;SDS011;25454;49.878;8.618;2022-10-16T21:45:28;5.37;;;4.80;;
39778;SDS011;25454;49.878;8.618;2022-10-16T21:50:30;10.10;;;5.10;;
39778;SDS011;25454;49.878;8.618;2022-10-16T21:55:34;6.87;;;4.80;;
39778;SDS011;25454;49.878;8.618;2022-10-16T22:00:35;7.03;;;5.20;;
39778;SDS011;25454;49.878;8.618;2022-10-16T22:05:35;7.17;;;4.33;;
39778;SDS011;25454;49.878;8.618;2022-10-16T22:10:36;8.50;;;5.20;;
39778;SDS011;25454;49.878;8.618;2022-10-16T22:15:36;7.00;;;4.90;;
39778;SDS011;25454;49.878;8.618;2022-10-16T22:20:41;8.40;;;5.60;;
39778;SDS011;25454;49.878;8.618;2022-10-16T22:25:46;5.87;;;4.87;;
39778;SDS011;25454;49.878;8.618;2022-10-16T22:30:47;7.63;;;4.53;;
39778;SDS011;25454;49.878;8.618;2022-10-16T22:35:47;7.37;;;5.20;;
39778;SDS011;25454;49.878;8.618;2022-10-16T22:40:48;7.77;;;5.23;;
39778;SDS011;25454;49.878;8.618;2022-10-16T22:45:48;9.33;;;5.53;;
39778;SDS011;25454;49.878;8.618;2022-10-16T22:50:49;12.00;;;7.40;;
39778;SDS011;25454;49.878;8.618;2022-10-16T22:55:49;8.83;;;6.20;;
39778;SDS011;25454;49.878;8.618;2022-10-16T23:00:50;10.27;;;5.97;;
39778;SDS011;25454;49.878;8.618;2022-10-16T23:05:51;12.50;;;5.50;;
39778;SDS011;25454;49.878;8.618;2022-10-16T23:10:52;8.03;;;4.60;;
39778;SDS011;25454;49.878;8.618;2022-10-16T23:15:52;5.73;;;4.40;;
39778;SDS011;25454;49.878;8.618;2022-10-16T23:20:53;7.07;;;4.67;;
39778;SDS011;25454;49.878;8.618;2022-10-16T23:25:53;5.10;;;4.30;;
39778;SDS011;25454;49.878;8.618;2022-10-16T23:30:54;6.57;;;4.50;;
39778;SDS011;25454;49.878;8.618;2022-10-16T23:35:54;4.70;;;4.20;;
39778;SDS011;25454;49.878;8.618;2022-10-16T23:40:55;8.17;;;5.00;;
39778;SDS011;25454;49.878;8.618;2022-10-16T23:45:55;7.50;;;5.27;;
39778;SDS011;25454;49.878;8.618;2022-10-16T23:50:56;5.63;;;4.83;;
39778;SDS011;25454;49.878;8.618;2022-10-16T23:55:57;5.87;;;5.00;;
